Impacts TAF Board
For situational awareness. Not to be used for flight planning purposes.
IDs:

KLAS - Las Vegas/McCarran I, NV, US

Issued at 0850 UTC 25 May 2020
Updated at 0920 UTC 25 May 2020
Potential Impact None Slight Moderate High
Time0856Z 25/10Z 25/11Z 25/12Z 25/13Z 25/14Z 25/15Z 25/16Z 25/17Z 25/18Z 25/19Z 25/20Z 25/21Z 25/22Z>>
Type OBS PRVL PRVL PRVL PRVL PRVL PRVL PRVL PRVL PRVL PRVL PRVL PRVL PRVL
VIS 10 >6 >6 >6 >6 >6 >6 >6 >6 >6 >6 >6 >6 >6
CIG -- -- -- -- -- -- -- -- -- -- -- -- -- --
Cover CLR FEW FEW FEW FEW FEW FEW FEW FEW FEW FEW FEW FEW FEW
FltCat VFR VFR VFR VFR VFR VFR VFR VFR VFR VFR VFR VFR VFR VFR
WX -- -- -- -- -- -- -- -- -- -- -- -- -- --
WDir 50 40 40 VRB VRB VRB VRB 50 50 50 50 50 50 70
WSpd 10 8 8 5 5 5 5 10 10 10 10 10 10 5
WGst -- -- -- -- -- -- -- -- -- -- -- -- -- --
Raw TAF
KLAS 250850Z 2509/2612 04008KT P6SM FEW250
  FM251200 VRB05KT P6SM FEW250
  FM251600 05010KT P6SM FEW250
  FM252200 07005KT P6SM FEW250
  FM260300 24005KT P6SM FEW250


Raw METAR
KLAS 250856Z 05010KT 10SM CLR 23/M06 A2996 RMK AO2 SLP123 T02331056 51018 $
KLAS 250756Z 03008KT 10SM FEW250 24/M06 A2994 RMK AO2 SLP117 T02391056 403110183 $
KLAS 250656Z 03013KT 10SM FEW250 25/M06 A2993 RMK AO2 SLP112 T02501056 $

METAR Board
Radar Display
Forecast Discussion
For situational awareness. Not to be used for flight planning purposes.